sensor_id;sensor_type;location;lat;lon;timestamp;pressure;altitude;pressure_sealevel;temperature;humidity
76257;BME280;65074;50.436;8.672;2023-10-19T00:02:06;97671.63;;;9.48;100.00
76257;BME280;65074;50.436;8.672;2023-10-19T00:04:32;97674.03;;;9.49;100.00
76257;BME280;65074;50.436;8.672;2023-10-19T00:07:00;97675.63;;;9.50;100.00
76257;BME280;65074;50.436;8.672;2023-10-19T00:09:26;97670.28;;;9.50;100.00
76257;BME280;65074;50.436;8.672;2023-10-19T00:11:56;97668.34;;;9.51;100.00
76257;BME280;65074;50.436;8.672;2023-10-19T00:14:23;97673.47;;;9.52;100.00
76257;BME280;65074;50.436;8.672;2023-10-19T00:16:51;97666.22;;;9.53;100.00
76257;BME280;65074;50.436;8.672;2023-10-19T00:19:21;97659.75;;;9.54;100.00
76257;BME280;65074;50.436;8.672;2023-10-19T00:21:47;97652.78;;;9.53;100.00
76257;BME280;65074;50.436;8.672;2023-10-19T00:24:18;97649.81;;;9.54;100.00
76257;BME280;65074;50.436;8.672;2023-10-19T00:26:45;97657.56;;;9.56;100.00
76257;BME280;65074;50.436;8.672;2023-10-19T00:29:10;97651.13;;;9.57;100.00
76257;BME280;65074;50.436;8.672;2023-10-19T00:31:54;97646.56;;;9.57;100.00
76257;BME280;65074;50.436;8.672;2023-10-19T00:34:21;97643.06;;;9.57;100.00
76257;BME280;65074;50.436;8.672;2023-10-19T00:36:47;97641.47;;;9.56;100.00
76257;BME280;65074;50.436;8.672;2023-10-19T00:39:13;97631.28;;;9.58;100.00
76257;BME280;65074;50.436;8.672;2023-10-19T00:41:59;97639.84;;;9.60;100.00
76257;BME280;65074;50.436;8.672;2023-10-19T00:44:27;97644.09;;;9.61;100.00
76257;BME280;65074;50.436;8.672;2023-10-19T00:47:08;97638.72;;;9.61;100.00
76257;BME280;65074;50.436;8.672;2023-10-19T00:49:39;97636.56;;;9.63;100.00
76257;BME280;65074;50.436;8.672;2023-10-19T00:52:06;97635.47;;;9.64;100.00
76257;BME280;65074;50.436;8.672;2023-10-19T00:54:45;97624.75;;;9.64;100.00
76257;BME280;65074;50.436;8.672;2023-10-19T00:57:19;97630.13;;;9.64;100.00
76257;BME280;65074;50.436;8.672;2023-10-19T00:59:59;97624.75;;;9.64;100.00
76257;BME280;65074;50.436;8.672;2023-10-19T01:02:40;97621.75;;;9.65;100.00
76257;BME280;65074;50.436;8.672;2023-10-19T01:05:11;97619.31;;;9.69;100.00
76257;BME280;65074;50.436;8.672;2023-10-19T01:07:40;97624.13;;;9.72;100.00
76257;BME280;65074;50.436;8.672;2023-10-19T01:10:07;97609.84;;;9.76;100.00
76257;BME280;65074;50.436;8.672;2023-10-19T01:12:33;97602.78;;;9.80;100.00
76257;BME280;65074;50.436;8.672;2023-10-19T01:17:47;97594.03;;;9.94;100.00
76257;BME280;65074;50.436;8.672;2023-10-19T01:20:17;97608.50;;;9.98;100.00
76257;BME280;65074;50.436;8.672;2023-10-19T01:22:54;97603.34;;;10.01;100.00
76257;BME280;65074;50.436;8.672;2023-10-19T01:25:50;97595.59;;;10.00;100.00
76257;BME280;65074;50.436;8.672;2023-10-19T01:28:42;97597.47;;;9.99;100.00
76257;BME280;65074;50.436;8.672;2023-10-19T01:31:09;97603.94;;;9.98;100.00
76257;BME280;65074;50.436;8.672;2023-10-19T01:33:41;97605.53;;;9.99;100.00
76257;BME280;65074;50.436;8.672;2023-10-19T01:36:08;97596.59;;;10.04;100.00
76257;BME280;65074;50.436;8.672;2023-10-19T01:38:36;97604.97;;;10.02;100.00
76257;BME280;65074;50.436;8.672;2023-10-19T01:41:03;97603.06;;;10.03;100.00
76257;BME280;65074;50.436;8.672;2023-10-19T01:43:45;97585.34;;;10.02;100.00
76257;BME280;65074;50.436;8.672;2023-10-19T01:46:13;97596.38;;;10.00;100.00
76257;BME280;65074;50.436;8.672;2023-10-19T01:48:40;97600.38;;;10.03;100.00
76257;BME280;65074;50.436;8.672;2023-10-19T01:51:07;97584.03;;;9.99;100.00
76257;BME280;65074;50.436;8.672;2023-10-19T01:53:36;97585.13;;;9.98;100.00
76257;BME280;65074;50.436;8.672;2023-10-19T01:56:02;97587.53;;;10.00;100.00
76257;BME280;65074;50.436;8.672;2023-10-19T01:58:31;97578.38;;;10.01;100.00
76257;BME280;65074;50.436;8.672;2023-10-19T02:01:03;97582.66;;;10.02;100.00
76257;BME280;65074;50.436;8.672;2023-10-19T02:03:35;97578.88;;;10.03;100.00
76257;BME280;65074;50.436;8.672;2023-10-19T02:06:02;97567.34;;;10.02;100.00
76257;BME280;65074;50.436;8.672;2023-10-19T02:08:54;97568.44;;;10.01;100.00
76257;BME280;65074;50.436;8.672;2023-10-19T02:11:25;97558.00;;;10.00;100.00
76257;BME280;65074;50.436;8.672;2023-10-19T02:13:55;97566.56;;;10.02;100.00
76257;BME280;65074;50.436;8.672;2023-10-19T02:16:26;97561.19;;;10.02;100.00
76257;BME280;65074;50.436;8.672;2023-10-19T02:18:53;97569.44;;;10.05;100.00
76257;BME280;65074;50.436;8.672;2023-10-19T02:21:19;97552.25;;;10.06;100.00
76257;BME280;65074;50.436;8.672;2023-10-19T02:23:48;97551.16;;;10.07;100.00
76257;BME280;65074;50.436;8.672;2023-10-19T02:26:19;97549.00;;;10.09;100.00
76257;BME280;65074;50.436;8.672;2023-10-19T02:28:48;97544.13;;;10.11;100.00
76257;BME280;65074;50.436;8.672;2023-10-19T02:31:17;97544.13;;;10.11;100.00
76257;BME280;65074;50.436;8.672;2023-10-19T02:33:50;97535.50;;;10.14;100.00
76257;BME280;65074;50.436;8.672;2023-10-19T02:36:28;97546.47;;;10.18;100.00
76257;BME280;65074;50.436;8.672;2023-10-19T02:38:58;97536.03;;;10.16;100.00
76257;BME280;65074;50.436;8.672;2023-10-19T02:41:25;97526.84;;;10.17;100.00
76257;BME280;65074;50.436;8.672;2023-10-19T02:43:52;97528.75;;;10.17;100.00
76257;BME280;65074;50.436;8.672;2023-10-19T02:46:50;97530.34;;;10.18;100.00
76257;BME280;65074;50.436;8.672;2023-10-19T02:49:17;97531.66;;;10.20;100.00
76257;BME280;65074;50.436;8.672;2023-10-19T02:51:47;97528.69;;;10.22;100.00
76257;BME280;65074;50.436;8.672;2023-10-19T02:54:14;97528.38;;;10.23;100.00
76257;BME280;65074;50.436;8.672;2023-10-19T02:56:46;97518.13;;;10.25;100.00
76257;BME280;65074;50.436;8.672;2023-10-19T02:59:16;97518.94;;;10.26;100.00
76257;BME280;65074;50.436;8.672;2023-10-19T03:01:42;97515.44;;;10.25;100.00
76257;BME280;65074;50.436;8.672;2023-10-19T03:04:11;97511.69;;;10.26;100.00
76257;BME280;65074;50.436;8.672;2023-10-19T03:06:40;97506.59;;;10.25;100.00
76257;BME280;65074;50.436;8.672;2023-10-19T03:09:07;97527.81;;;10.26;100.00
76257;BME280;65074;50.436;8.672;2023-10-19T03:11:41;97518.94;;;10.26;100.00
76257;BME280;65074;50.436;8.672;2023-10-19T03:14:11;97517.06;;;10.26;100.00
76257;BME280;65074;50.436;8.672;2023-10-19T03:16:38;97513.25;;;10.27;100.00
76257;BME280;65074;50.436;8.672;2023-10-19T03:19:06;97504.63;;;10.30;100.00
76257;BME280;65074;50.436;8.672;2023-10-19T03:21:33;97499.75;;;10.32;100.00
76257;BME280;65074;50.436;8.672;2023-10-19T03:24:09;97503.75;;;10.35;100.00
76257;BME280;65074;50.436;8.672;2023-10-19T03:26:40;97497.56;;;10.34;100.00
76257;BME280;65074;50.436;8.672;2023-10-19T03:29:14;97492.19;;;10.34;100.00
76257;BME280;65074;50.436;8.672;2023-10-19T03:31:40;97495.69;;;10.35;100.00
76257;BME280;65074;50.436;8.672;2023-10-19T03:34:10;97498.09;;;10.36;100.00
76257;BME280;65074;50.436;8.672;2023-10-19T03:36:38;97500.78;;;10.36;100.00
76257;BME280;65074;50.436;8.672;2023-10-19T03:39:04;97498.88;;;10.37;100.00
76257;BME280;65074;50.436;8.672;2023-10-19T03:41:41;97493.22;;;10.38;100.00
76257;BME280;65074;50.436;8.672;2023-10-19T03:44:13;97490.22;;;10.40;100.00
76257;BME280;65074;50.436;8.672;2023-10-19T03:46:59;97498.00;;;10.41;100.00
76257;BME280;65074;50.436;8.672;2023-10-19T03:49:29;97492.34;;;10.43;100.00
76257;BME280;65074;50.436;8.672;2023-10-19T03:52:01;97480.19;;;10.45;100.00
76257;BME280;65074;50.436;8.672;2023-10-19T03:54:36;97478.81;;;10.48;100.00
76257;BME280;65074;50.436;8.672;2023-10-19T03:57:15;97478.22;;;10.51;100.00
76257;BME280;65074;50.436;8.672;2023-10-19T03:59:46;97471.47;;;10.54;100.00
76257;BME280;65074;50.436;8.672;2023-10-19T04:02:12;97475.16;;;10.58;100.00
76257;BME280;65074;50.436;8.672;2023-10-19T04:04:43;97467.59;;;10.60;100.00
76257;BME280;65074;50.436;8.672;2023-10-19T04:07:12;97468.31;;;10.65;100.00
76257;BME280;65074;50.436;8.672;2023-10-19T04:09:50;97469.91;;;10.66;100.00
76257;BME280;65074;50.436;8.672;2023-10-19T04:12:38;97471.97;;;10.69;100.00
76257;BME280;65074;50.436;8.672;2023-10-19T04:15:04;97470.59;;;10.72;100.00
76257;BME280;65074;50.436;8.672;2023-10-19T04:17:40;97471.13;;;10.74;100.00
76257;BME280;65074;50.436;8.672;2023-10-19T04:20:09;97470.00;;;10.75;100.00
76257;BME280;65074;50.436;8.672;2023-10-19T04:22:53;97462.25;;;10.73;100.00
76257;BME280;65074;50.436;8.672;2023-10-19T04:25:19;97457.66;;;10.74;100.00
76257;BME280;65074;50.436;8.672;2023-10-19T04:27:46;97453.88;;;10.75;100.00
76257;BME280;65074;50.436;8.672;2023-10-19T04:30:13;97448.50;;;10.75;100.00
76257;BME280;65074;50.436;8.672;2023-10-19T04:32:43;97456.56;;;10.75;100.00
76257;BME280;65074;50.436;8.672;2023-10-19T04:35:09;97452.00;;;10.75;100.00
76257;BME280;65074;50.436;8.672;2023-10-19T04:37:35;97441.22;;;10.75;100.00
76257;BME280;65074;50.436;8.672;2023-10-19T04:40:00;97429.66;;;10.75;100.00
76257;BME280;65074;50.436;8.672;2023-10-19T04:42:26;97433.16;;;10.75;100.00
76257;BME280;65074;50.436;8.672;2023-10-19T04:44:54;97435.53;;;10.77;100.00
76257;BME280;65074;50.436;8.672;2023-10-19T04:47:19;97429.38;;;10.76;100.00
76257;BME280;65074;50.436;8.672;2023-10-19T04:49:44;97430.69;;;10.79;100.00
76257;BME280;65074;50.436;8.672;2023-10-19T04:52:10;97430.69;;;10.79;100.00
76257;BME280;65074;50.436;8.672;2023-10-19T04:54:35;97424.19;;;10.80;100.00
76257;BME280;65074;50.436;8.672;2023-10-19T04:57:02;97413.75;;;10.78;100.00
76257;BME280;65074;50.436;8.672;2023-10-19T04:59:28;97428.78;;;10.79;100.00
76257;BME280;65074;50.436;8.672;2023-10-19T05:01:58;97460.78;;;10.81;100.00
76257;BME280;65074;50.436;8.672;2023-10-19T05:04:27;97452.97;;;10.79;100.00
76257;BME280;65074;50.436;8.672;2023-10-19T05:06:52;97441.94;;;10.81;100.00
76257;BME280;65074;50.436;8.672;2023-10-19T05:09:18;97459.97;;;10.80;100.00
76257;BME280;65074;50.436;8.672;2023-10-19T05:11:43;97451.59;;;10.82;100.00
76257;BME280;65074;50.436;8.672;2023-10-19T05:14:12;97444.00;;;10.84;100.00
76257;BME280;65074;50.436;8.672;2023-10-19T05:16:39;97441.84;;;10.86;100.00
76257;BME280;65074;50.436;8.672;2023-10-19T05:19:05;97446.59;;;10.89;100.00
76257;BME280;65074;50.436;8.672;2023-10-19T05:21:30;97447.13;;;10.91;100.00
76257;BME280;65074;50.436;8.672;2023-10-19T05:23:56;97446.03;;;10.92;100.00
76257;BME280;65074;50.436;8.672;2023-10-19T05:26:21;97440.34;;;10.93;100.00
76257;BME280;65074;50.436;8.672;2023-10-19T05:28:47;97431.19;;;10.94;100.00
76257;BME280;65074;50.436;8.672;2023-10-19T05:31:13;97435.16;;;10.97;100.00
76257;BME280;65074;50.436;8.672;2023-10-19T05:33:38;97431.06;;;10.99;100.00
76257;BME280;65074;50.436;8.672;2023-10-19T05:36:04;97436.94;;;11.01;100.00
76257;BME280;65074;50.436;8.672;2023-10-19T05:38:30;97432.50;;;11.10;100.00
76257;BME280;65074;50.436;8.672;2023-10-19T05:40:57;97434.28;;;11.15;100.00
76257;BME280;65074;50.436;8.672;2023-10-19T05:43:24;97434.88;;;11.26;100.00
76257;BME280;65074;50.436;8.672;2023-10-19T05:45:50;97436.03;;;11.33;100.00
76257;BME280;65074;50.436;8.672;2023-10-19T05:48:15;97436.56;;;11.35;100.00
76257;BME280;65074;50.436;8.672;2023-10-19T05:50:41;97440.34;;;11.34;100.00
76257;BME280;65074;50.436;8.672;2023-10-19T05:53:08;97440.84;;;11.36;100.00
76257;BME280;65074;50.436;8.672;2023-10-19T05:55:33;97456.97;;;11.36;100.00
76257;BME280;65074;50.436;8.672;2023-10-19T05:58:01;97455.91;;;11.37;100.00
76257;BME280;65074;50.436;8.672;2023-10-19T06:00:30;97450.69;;;11.41;100.00
76257;BME280;65074;50.436;8.672;2023-10-19T06:02:55;97450.59;;;11.46;100.00
76257;BME280;65074;50.436;8.672;2023-10-19T06:05:21;97447.63;;;11.47;100.00
76257;BME280;65074;50.436;8.672;2023-10-19T06:07:48;97449.00;;;11.45;100.00
76257;BME280;65074;50.436;8.672;2023-10-19T06:10:18;97441.81;;;11.54;100.00
76257;BME280;65074;50.436;8.672;2023-10-19T06:12:46;97447.69;;;11.56;100.00
76257;BME280;65074;50.436;8.672;2023-10-19T06:15:12;97443.91;;;11.57;100.00
76257;BME280;65074;50.436;8.672;2023-10-19T06:17:39;97442.28;;;11.56;100.00
76257;BME280;65074;50.436;8.672;2023-10-19T06:20:07;97446.50;;;11.62;100.00
76257;BME280;65074;50.436;8.672;2023-10-19T06:22:35;97448.97;;;11.58;100.00
76257;BME280;65074;50.436;8.672;2023-10-19T06:25:02;97446.00;;;11.60;100.00
76257;BME280;65074;50.436;8.672;2023-10-19T06:27:29;97447.56;;;11.61;100.00
76257;BME280;65074;50.436;8.672;2023-10-19T06:29:56;97448.59;;;11.65;100.00
76257;BME280;65074;50.436;8.672;2023-10-19T06:32:21;97439.09;;;11.67;100.00
76257;BME280;65074;50.436;8.672;2023-10-19T06:34:47;97442.59;;;11.68;100.00
76257;BME280;65074;50.436;8.672;2023-10-19T06:37:13;97448.78;;;11.68;100.00
76257;BME280;65074;50.436;8.672;2023-10-19T06:39:38;97446.09;;;11.68;100.00
76257;BME280;65074;50.436;8.672;2023-10-19T06:42:07;97447.75;;;11.78;100.00
76257;BME280;65074;50.436;8.672;2023-10-19T06:44:39;97449.84;;;11.81;100.00
76257;BME280;65074;50.436;8.672;2023-10-19T06:47:05;97438.16;;;11.86;100.00
76257;BME280;65074;50.436;8.672;2023-10-19T06:49:32;97447.75;;;11.92;100.00
76257;BME280;65074;50.436;8.672;2023-10-19T06:51:57;97448.44;;;11.97;100.00
76257;BME280;65074;50.436;8.672;2023-10-19T06:54:23;97452.69;;;11.98;100.00
76257;BME280;65074;50.436;8.672;2023-10-19T06:56:49;97453.72;;;12.02;100.00
76257;BME280;65074;50.436;8.672;2023-10-19T06:59:14;97456.25;;;12.07;100.00
76257;BME280;65074;50.436;8.672;2023-10-19T07:01:39;97455.72;;;12.19;100.00
76257;BME280;65074;50.436;8.672;2023-10-19T07:04:05;97453.72;;;12.24;100.00
76257;BME280;65074;50.436;8.672;2023-10-19T07:06:30;97453.44;;;12.34;100.00
76257;BME280;65074;50.436;8.672;2023-10-19T07:08:56;97456.22;;;12.43;100.00
76257;BME280;65074;50.436;8.672;2023-10-19T07:11:21;97456.44;;;12.55;100.00
76257;BME280;65074;50.436;8.672;2023-10-19T07:13:49;97451.41;;;12.62;100.00
76257;BME280;65074;50.436;8.672;2023-10-19T07:16:14;97453.03;;;12.72;100.00
76257;BME280;65074;50.436;8.672;2023-10-19T07:18:40;97451.94;;;12.73;100.00
76257;BME280;65074;50.436;8.672;2023-10-19T07:21:05;97450.84;;;12.74;100.00
76257;BME280;65074;50.436;8.672;2023-10-19T07:23:35;97453.59;;;12.82;100.00
76257;BME280;65074;50.436;8.672;2023-10-19T07:26:03;97454.25;;;12.88;100.00
76257;BME280;65074;50.436;8.672;2023-10-19T07:28:29;97463.78;;;12.94;100.00
76257;BME280;65074;50.436;8.672;2023-10-19T07:30:55;97471.28;;;12.97;100.00
76257;BME280;65074;50.436;8.672;2023-10-19T07:33:21;97461.16;;;13.02;100.00
76257;BME280;65074;50.436;8.672;2023-10-19T07:35:47;97466.44;;;13.08;100.00
76257;BME280;65074;50.436;8.672;2023-10-19T07:38:17;97449.31;;;13.12;100.00
76257;BME280;65074;50.436;8.672;2023-10-19T07:40:46;97451.25;;;13.20;100.00
76257;BME280;65074;50.436;8.672;2023-10-19T07:43:12;97444.72;;;13.21;100.00
76257;BME280;65074;50.436;8.672;2023-10-19T07:45:37;97447.13;;;13.23;100.00
76257;BME280;65074;50.436;8.672;2023-10-19T07:48:04;97447.28;;;13.26;100.00
76257;BME280;65074;50.436;8.672;2023-10-19T07:50:36;97449.84;;;13.31;100.00
76257;BME280;65074;50.436;8.672;2023-10-19T07:53:02;97455.28;;;13.40;100.00
76257;BME280;65074;50.436;8.672;2023-10-19T07:55:28;97460.22;;;13.46;100.00
76257;BME280;65074;50.436;8.672;2023-10-19T07:57:54;97461.50;;;13.49;100.00
76257;BME280;65074;50.436;8.672;2023-10-19T08:00:20;97455.16;;;13.53;100.00
76257;BME280;65074;50.436;8.672;2023-10-19T08:02:47;97452.16;;;13.63;100.00
76257;BME280;65074;50.436;8.672;2023-10-19T08:05:16;97445.63;;;13.73;100.00
76257;BME280;65074;50.436;8.672;2023-10-19T08:07:44;97448.03;;;13.83;100.00
76257;BME280;65074;50.436;8.672;2023-10-19T08:10:10;97447.28;;;14.00;100.00
76257;BME280;65074;50.436;8.672;2023-10-19T08:12:40;97454.41;;;14.13;100.00
76257;BME280;65074;50.436;8.672;2023-10-19T08:15:10;97455.38;;;14.08;100.00
76257;BME280;65074;50.436;8.672;2023-10-19T08:17:40;97448.38;;;14.07;100.00
76257;BME280;65074;50.436;8.672;2023-10-19T08:20:07;97451.72;;;14.04;100.00
76257;BME280;65074;50.436;8.672;2023-10-19T08:22:42;97456.81;;;14.06;100.00
76257;BME280;65074;50.436;8.672;2023-10-19T08:25:08;97448.69;;;14.06;100.00
76257;BME280;65074;50.436;8.672;2023-10-19T08:27:43;97460.31;;;14.06;100.00
76257;BME280;65074;50.436;8.672;2023-10-19T08:30:19;97459.34;;;14.11;100.00
76257;BME280;65074;50.436;8.672;2023-10-19T08:32:46;97459.66;;;14.18;100.00
76257;BME280;65074;50.436;8.672;2023-10-19T08:35:19;97445.97;;;14.23;100.00
76257;BME280;65074;50.436;8.672;2023-10-19T08:37:51;97454.59;;;14.33;100.00
76257;BME280;65074;50.436;8.672;2023-10-19T08:40:18;97440.59;;;14.40;100.00
76257;BME280;65074;50.436;8.672;2023-10-19T08:42:45;97441.06;;;14.51;100.00
76257;BME280;65074;50.436;8.672;2023-10-19T08:45:14;97442.47;;;14.57;100.00
76257;BME280;65074;50.436;8.672;2023-10-19T08:47:55;97433.81;;;14.80;100.00
76257;BME280;65074;50.436;8.672;2023-10-19T08:50:27;97437.41;;;15.02;100.00
76257;BME280;65074;50.436;8.672;2023-10-19T08:52:55;97448.50;;;15.17;100.00
76257;BME280;65074;50.436;8.672;2023-10-19T08:55:20;97443.03;;;15.26;100.00
76257;BME280;65074;50.436;8.672;2023-10-19T08:57:50;97450.31;;;15.34;100.00
76257;BME280;65074;50.436;8.672;2023-10-19T09:00:17;97442.72;;;15.27;100.00
76257;BME280;65074;50.436;8.672;2023-10-19T09:02:44;97439.78;;;15.41;100.00
76257;BME280;65074;50.436;8.672;2023-10-19T09:05:10;97432.50;;;15.33;100.00
76257;BME280;65074;50.436;8.672;2023-10-19T09:07:46;97436.31;;;15.32;100.00
76257;BME280;65074;50.436;8.672;2023-10-19T09:10:16;97439.94;;;15.36;100.00
76257;BME280;65074;50.436;8.672;2023-10-19T09:12:41;97441.81;;;15.44;100.00
76257;BME280;65074;50.436;8.672;2023-10-19T09:15:21;97436.53;;;15.56;100.00
76257;BME280;65074;50.436;8.672;2023-10-19T09:17:46;97431.16;;;15.77;100.00
76257;BME280;65074;50.436;8.672;2023-10-19T09:20:14;97415.34;;;15.99;100.00
76257;BME280;65074;50.436;8.672;2023-10-19T09:22:49;97415.00;;;16.01;100.00
76257;BME280;65074;50.436;8.672;2023-10-19T09:25:15;97410.13;;;15.94;100.00
76257;BME280;65074;50.436;8.672;2023-10-19T09:27:40;97405.50;;;15.95;100.00
76257;BME280;65074;50.436;8.672;2023-10-19T09:30:08;97408.91;;;15.83;100.00
76257;BME280;65074;50.436;8.672;2023-10-19T09:32:35;97406.28;;;15.75;100.00
76257;BME280;65074;50.436;8.672;2023-10-19T09:35:01;97409.69;;;15.63;100.00
76257;BME280;65074;50.436;8.672;2023-10-19T09:37:28;97397.41;;;15.45;100.00
76257;BME280;65074;50.436;8.672;2023-10-19T09:39:54;97400.56;;;15.47;100.00
76257;BME280;65074;50.436;8.672;2023-10-19T09:42:20;97401.72;;;15.37;100.00
76257;BME280;65074;50.436;8.672;2023-10-19T09:44:55;97420.22;;;15.35;100.00
76257;BME280;65074;50.436;8.672;2023-10-19T09:47:30;97413.09;;;15.22;100.00
76257;BME280;65074;50.436;8.672;2023-10-19T09:50:03;97411.75;;;15.08;100.00
76257;BME280;65074;50.436;8.672;2023-10-19T09:52:31;97401.13;;;14.94;100.00
76257;BME280;65074;50.436;8.672;2023-10-19T09:55:07;97408.81;;;14.83;100.00
76257;BME280;65074;50.436;8.672;2023-10-19T09:57:53;97401.53;;;14.67;100.00
76257;BME280;65074;50.436;8.672;2023-10-19T10:00:20;97397.44;;;14.61;100.00
76257;BME280;65074;50.436;8.672;2023-10-19T10:02:49;97399.16;;;14.57;100.00
76257;BME280;65074;50.436;8.672;2023-10-19T10:10:50;97386.19;;;14.42;100.00
76257;BME280;65074;50.436;8.672;2023-10-19T10:15:56;97391.25;;;14.26;100.00
76257;BME280;65074;50.436;8.672;2023-10-19T10:18:32;97394.78;;;14.26;100.00
76257;BME280;65074;50.436;8.672;2023-10-19T10:21:19;97397.47;;;14.35;100.00
76257;BME280;65074;50.436;8.672;2023-10-19T10:23:55;97391.88;;;14.49;100.00
76257;BME280;65074;50.436;8.672;2023-10-19T10:26:22;97398.19;;;14.70;100.00
76257;BME280;65074;50.436;8.672;2023-10-19T10:29:10;97383.94;;;14.90;100.00
76257;BME280;65074;50.436;8.672;2023-10-19T10:31:44;97384.38;;;15.01;100.00
76257;BME280;65074;50.436;8.672;2023-10-19T10:34:10;97380.81;;;15.09;100.00
76257;BME280;65074;50.436;8.672;2023-10-19T10:37:02;97372.28;;;15.27;100.00
76257;BME280;65074;50.436;8.672;2023-10-19T10:39:28;97358.31;;;15.46;100.00
76257;BME280;65074;50.436;8.672;2023-10-19T10:42:02;97365.88;;;15.82;100.00
76257;BME280;65074;50.436;8.672;2023-10-19T10:44:46;97367.72;;;16.22;100.00
76257;BME280;65074;50.436;8.672;2023-10-19T10:47:20;97366.34;;;16.49;100.00
76257;BME280;65074;50.436;8.672;2023-10-19T10:49:57;97367.78;;;16.91;100.00
76257;BME280;65074;50.436;8.672;2023-10-19T10:52:29;97365.44;;;17.02;100.00
76257;BME280;65074;50.436;8.672;2023-10-19T10:54:57;97366.91;;;17.00;100.00
76257;BME280;65074;50.436;8.672;2023-10-19T10:57:23;97366.09;;;16.99;100.00
76257;BME280;65074;50.436;8.672;2023-10-19T11:02:38;97388.63;;;16.87;100.00
76257;BME280;65074;50.436;8.672;2023-10-19T11:05:17;97383.19;;;16.87;100.00
76257;BME280;65074;50.436;8.672;2023-10-19T11:10:39;97386.47;;;16.81;100.00
76257;BME280;65074;50.436;8.672;2023-10-19T11:13:10;97391.47;;;16.91;100.00
76257;BME280;65074;50.436;8.672;2023-10-19T11:15:37;97385.59;;;17.13;100.00
76257;BME280;65074;50.436;8.672;2023-10-19T11:18:06;97382.84;;;17.62;100.00
76257;BME280;65074;50.436;8.672;2023-10-19T11:20:35;97377.66;;;17.96;100.00
76257;BME280;65074;50.436;8.672;2023-10-19T11:23:01;97377.94;;;18.19;100.00
76257;BME280;65074;50.436;8.672;2023-10-19T11:25:28;97373.81;;;18.25;100.00
76257;BME280;65074;50.436;8.672;2023-10-19T11:27:58;97368.81;;;18.27;100.00
76257;BME280;65074;50.436;8.672;2023-10-19T11:30:31;97358.72;;;18.28;100.00
76257;BME280;65074;50.436;8.672;2023-10-19T11:32:57;97350.59;;;18.15;100.00
76257;BME280;65074;50.436;8.672;2023-10-19T11:35:29;97358.94;;;17.95;100.00
76257;BME280;65074;50.436;8.672;2023-10-19T11:37:59;97349.66;;;17.96;100.00
76257;BME280;65074;50.436;8.672;2023-10-19T11:40:26;97355.13;;;17.96;100.00
76257;BME280;65074;50.436;8.672;2023-10-19T11:42:53;97349.78;;;17.99;100.00
76257;BME280;65074;50.436;8.672;2023-10-19T11:45:22;97342.38;;;18.00;100.00
76257;BME280;65074;50.436;8.672;2023-10-19T11:47:48;97346.44;;;17.78;100.00
76257;BME280;65074;50.436;8.672;2023-10-19T11:50:14;97347.16;;;17.63;100.00
76257;BME280;65074;50.436;8.672;2023-10-19T11:52:41;97333.78;;;17.46;100.00
76257;BME280;65074;50.436;8.672;2023-10-19T11:55:07;97337.81;;;17.00;100.00
76257;BME280;65074;50.436;8.672;2023-10-19T11:57:34;97333.72;;;16.82;100.00
76257;BME280;65074;50.436;8.672;2023-10-19T12:00:01;97338.56;;;16.64;100.00
76257;BME280;65074;50.436;8.672;2023-10-19T12:02:30;97324.50;;;16.50;100.00
76257;BME280;65074;50.436;8.672;2023-10-19T12:04:56;97325.97;;;16.48;100.00
76257;BME280;65074;50.436;8.672;2023-10-19T12:07:21;97324.84;;;16.49;100.00
76257;BME280;65074;50.436;8.672;2023-10-19T12:09:46;97321.56;;;16.43;100.00
76257;BME280;65074;50.436;8.672;2023-10-19T12:12:12;97329.91;;;16.38;100.00
76257;BME280;65074;50.436;8.672;2023-10-19T12:14:38;97325.38;;;16.30;100.00
76257;BME280;65074;50.436;8.672;2023-10-19T12:17:04;97319.84;;;16.26;100.00
76257;BME280;65074;50.436;8.672;2023-10-19T12:19:31;97316.88;;;16.19;100.00
76257;BME280;65074;50.436;8.672;2023-10-19T12:21:57;97318.91;;;16.22;100.00
76257;BME280;65074;50.436;8.672;2023-10-19T12:24:23;97320.81;;;16.22;100.00
76257;BME280;65074;50.436;8.672;2023-10-19T12:26:49;97313.81;;;16.21;100.00
76257;BME280;65074;50.436;8.672;2023-10-19T12:29:16;97316.88;;;16.19;100.00
76257;BME280;65074;50.436;8.672;2023-10-19T12:31:42;97311.91;;;16.21;100.00
76257;BME280;65074;50.436;8.672;2023-10-19T12:34:08;97308.63;;;16.28;100.00
76257;BME280;65074;50.436;8.672;2023-10-19T12:36:34;97310.13;;;16.38;100.00
76257;BME280;65074;50.436;8.672;2023-10-19T12:39:00;97310.72;;;16.43;100.00
76257;BME280;65074;50.436;8.672;2023-10-19T12:41:28;97306.53;;;16.46;100.00
76257;BME280;65074;50.436;8.672;2023-10-19T12:43:54;97301.19;;;16.49;100.00
76257;BME280;65074;50.436;8.672;2023-10-19T12:46:34;97302.66;;;16.47;100.00
76257;BME280;65074;50.436;8.672;2023-10-19T12:49:04;97309.69;;;16.48;100.00
76257;BME280;65074;50.436;8.672;2023-10-19T12:51:33;97310.81;;;16.47;100.00
76257;BME280;65074;50.436;8.672;2023-10-19T12:53:59;97309.34;;;16.49;100.00
76257;BME280;65074;50.436;8.672;2023-10-19T12:56:28;97302.97;;;16.54;100.00
76257;BME280;65074;50.436;8.672;2023-10-19T12:58:54;97306.34;;;16.63;100.00
76257;BME280;65074;50.436;8.672;2023-10-19T13:01:19;97299.44;;;16.65;100.00
76257;BME280;65074;50.436;8.672;2023-10-19T13:03:48;97300.78;;;16.71;100.00
76257;BME280;65074;50.436;8.672;2023-10-19T13:06:17;97305.56;;;16.74;100.00
76257;BME280;65074;50.436;8.672;2023-10-19T13:08:42;97307.72;;;16.69;100.00
76257;BME280;65074;50.436;8.672;2023-10-19T13:11:08;97299.91;;;16.55;100.00
76257;BME280;65074;50.436;8.672;2023-10-19T13:13:35;97302.34;;;16.48;100.00
76257;BME280;65074;50.436;8.672;2023-10-19T13:16:04;97305.63;;;16.42;100.00
76257;BME280;65074;50.436;8.672;2023-10-19T13:18:34;97288.63;;;16.33;100.00